createdAt,value
2018-12-14T00:00:33.460Z,27.20
2018-12-14T00:01:33.427Z,28.80
2018-12-14T00:02:33.397Z,27.50
2018-12-14T00:03:33.374Z,29.20
2018-12-14T00:04:33.344Z,29.50
2018-12-14T00:05:33.318Z,29.70
2018-12-14T00:06:33.293Z,31.30
2018-12-14T00:07:33.275Z,32.30
2018-12-14T00:08:33.241Z,33.70
2018-12-14T00:09:33.213Z,33.20
2018-12-14T00:10:33.189Z,34.50
2018-12-14T00:11:33.162Z,35.10
2018-12-14T00:12:33.144Z,34.20
2018-12-14T00:13:33.116Z,34.80
2018-12-14T00:14:33.090Z,34.70
2018-12-14T00:15:33.057Z,34.60
2018-12-14T00:16:33.031Z,35.40
2018-12-14T00:17:33.023Z,31.80
2018-12-14T00:18:32.976Z,32.10
2018-12-14T00:19:32.951Z,31.90
2018-12-14T00:20:32.924Z,31.70
2018-12-14T00:21:32.906Z,31.90
2018-12-14T00:22:32.870Z,29.10
2018-12-14T00:23:32.849Z,29.80
2018-12-14T00:24:32.828Z,27.00
2018-12-14T00:25:32.796Z,27.50
2018-12-14T00:26:32.768Z,24.80
2018-12-14T00:27:32.744Z,26.10
2018-12-14T00:28:32.718Z,24.70
2018-12-14T00:29:32.687Z,23.80
2018-12-14T00:30:32.669Z,25.20
2018-12-14T00:31:32.646Z,24.40
2018-12-14T00:32:32.610Z,25.00
2018-12-14T00:33:32.582Z,24.70
2018-12-14T00:34:32.559Z,24.20
2018-12-14T00:35:32.530Z,24.80
2018-12-14T00:36:32.504Z,25.70
2018-12-14T00:37:32.478Z,25.90
2018-12-14T00:38:32.453Z,25.30
2018-12-14T00:39:32.429Z,26.20
2018-12-14T00:40:32.401Z,24.60
2018-12-14T00:41:32.373Z,25.20
2018-12-14T00:42:32.351Z,25.60
2018-12-14T00:43:32.319Z,25.80
2018-12-14T00:44:32.319Z,27.50
2018-12-14T00:45:32.269Z,27.30
2018-12-14T00:46:32.252Z,27.60
2018-12-14T00:47:32.278Z,27.50
2018-12-14T00:48:32.199Z,29.90
2018-12-14T00:49:32.171Z,30.00
2018-12-14T00:50:32.145Z,31.00
2018-12-14T00:51:32.109Z,31.80
2018-12-14T00:52:32.093Z,34.00
2018-12-14T00:53:32.061Z,32.80
2018-12-14T00:54:32.039Z,33.70
2018-12-14T00:55:32.009Z,35.80
2018-12-14T00:56:31.980Z,35.60
2018-12-14T00:57:31.951Z,33.30
2018-12-14T00:58:31.935Z,37.00
2018-12-14T00:59:31.897Z,37.00
2018-12-14T01:00:31.869Z,36.30
2018-12-14T01:01:31.842Z,35.10
2018-12-14T01:02:31.818Z,36.60
2018-12-14T01:03:31.791Z,34.90
2018-12-14T01:04:31.764Z,35.10
2018-12-14T01:05:31.740Z,33.70
2018-12-14T01:06:31.713Z,33.10
2018-12-14T01:07:31.689Z,32.60
2018-12-14T01:08:31.662Z,34.00
2018-12-14T01:09:31.632Z,32.50
2018-12-14T01:10:31.611Z,30.10
2018-12-14T01:11:31.581Z,30.90
2018-12-14T01:12:31.559Z,30.70
2018-12-14T01:13:31.525Z,30.40
2018-12-14T01:14:31.503Z,29.00
2018-12-14T01:15:31.475Z,30.80
2018-12-14T01:16:31.447Z,29.90
2018-12-14T01:17:31.420Z,30.00
2018-12-14T01:18:31.396Z,31.10
2018-12-14T01:19:31.367Z,33.80
2018-12-14T01:20:31.344Z,34.70
2018-12-14T01:21:31.314Z,32.30
2018-12-14T01:22:31.301Z,32.10
2018-12-14T01:23:31.264Z,33.60
2018-12-14T01:24:31.237Z,32.50
2018-12-14T01:25:31.208Z,31.80
2018-12-14T01:26:31.188Z,32.10
2018-12-14T01:27:31.157Z,32.30
2018-12-14T01:28:31.132Z,32.50
2018-12-14T01:29:31.103Z,32.60
2018-12-14T01:30:31.080Z,33.90
2018-12-14T01:31:31.059Z,34.80
2018-12-14T01:32:31.034Z,36.40
2018-12-14T01:33:30.998Z,36.30
2018-12-14T01:34:30.973Z,35.20
2018-12-14T01:35:30.953Z,34.30
2018-12-14T01:36:30.920Z,35.90
2018-12-14T01:37:30.894Z,34.60
2018-12-14T01:38:30.867Z,37.00
2018-12-14T01:39:30.845Z,37.30
2018-12-14T01:40:30.819Z,37.90
2018-12-14T01:41:30.790Z,37.30
2018-12-14T01:42:30.763Z,36.30
2018-12-14T01:43:30.737Z,36.10
2018-12-14T01:44:30.711Z,35.00
2018-12-14T01:45:30.683Z,36.00
2018-12-14T01:46:30.656Z,34.70
2018-12-14T01:47:30.631Z,35.80
2018-12-14T01:48:30.603Z,35.10
2018-12-14T01:49:30.577Z,37.20
2018-12-14T01:50:30.551Z,36.90
2018-12-14T01:51:30.526Z,35.40
2018-12-14T01:52:30.499Z,37.10
2018-12-14T01:53:30.474Z,38.00
2018-12-14T01:54:30.445Z,37.80
2018-12-14T01:55:30.419Z,36.30
2018-12-14T01:56:30.393Z,33.80
2018-12-14T01:57:30.369Z,34.10
2018-12-14T01:58:30.342Z,32.80
2018-12-14T01:59:30.314Z,31.80
2018-12-14T02:00:30.294Z,30.80
2018-12-14T02:01:30.261Z,30.80
2018-12-14T02:02:30.237Z,30.30
2018-12-14T02:03:30.209Z,28.40
2018-12-14T02:04:30.184Z,27.90
2018-12-14T02:05:30.155Z,28.90
2018-12-14T02:06:30.130Z,30.40
2018-12-14T02:07:30.104Z,28.80
2018-12-14T02:08:30.076Z,27.60
2018-12-14T02:09:30.053Z,28.40
2018-12-14T02:10:30.023Z,28.20
2018-12-14T02:11:29.998Z,29.70
2018-12-14T02:12:29.973Z,28.50
2018-12-14T02:13:29.946Z,28.00
2018-12-14T02:14:29.926Z,27.90
2018-12-14T02:15:29.894Z,27.40
2018-12-14T02:16:29.868Z,27.40
2018-12-14T02:17:29.839Z,28.80
2018-12-14T02:18:29.814Z,28.40
2018-12-14T02:19:29.786Z,28.20
2018-12-14T02:20:29.766Z,28.40
2018-12-14T02:21:29.738Z,28.40
2018-12-14T02:22:29.718Z,29.60
2018-12-14T02:23:29.682Z,29.10
2018-12-14T02:24:29.673Z,29.10
2018-12-14T02:25:29.628Z,29.60
2018-12-14T02:26:29.602Z,28.30
2018-12-14T02:27:29.575Z,28.90
2018-12-14T02:28:29.550Z,29.30
2018-12-14T02:29:29.524Z,29.80
2018-12-14T02:30:29.500Z,30.10
2018-12-14T02:31:29.470Z,30.70
2018-12-14T02:32:29.441Z,30.60
2018-12-14T02:33:29.417Z,31.20
2018-12-14T02:34:29.402Z,31.10
2018-12-14T02:35:29.362Z,31.00
2018-12-14T02:36:29.404Z,32.50
2018-12-14T02:37:29.311Z,29.60
2018-12-14T02:38:29.283Z,30.70
2018-12-14T02:39:29.257Z,30.30
2018-12-14T02:40:29.231Z,30.60
2018-12-14T02:41:29.207Z,30.10
2018-12-14T02:42:29.178Z,29.60
2018-12-14T02:43:29.154Z,31.20
2018-12-14T02:44:29.124Z,30.30
2018-12-14T02:45:29.098Z,29.70
2018-12-14T02:46:29.072Z,31.40
2018-12-14T02:47:29.043Z,31.40
2018-12-14T02:48:29.019Z,31.00
2018-12-14T02:49:28.991Z,29.60
2018-12-14T02:50:28.965Z,30.60
2018-12-14T02:51:28.941Z,30.50
2018-12-14T02:52:28.912Z,31.30
2018-12-14T02:53:28.884Z,30.90
2018-12-14T02:54:28.863Z,30.00
2018-12-14T02:55:28.837Z,31.70
2018-12-14T02:56:28.807Z,31.50
2018-12-14T02:57:28.780Z,32.10
2018-12-14T02:58:28.756Z,30.00
2018-12-14T02:59:28.728Z,30.30
2018-12-14T03:00:28.699Z,30.80
2018-12-14T03:01:28.675Z,30.80
2018-12-14T03:02:28.649Z,30.60
2018-12-14T03:03:28.622Z,31.60
2018-12-14T03:04:28.602Z,29.90
2018-12-14T03:05:28.565Z,29.70
2018-12-14T03:06:28.542Z,29.80
2018-12-14T03:07:28.516Z,29.70
2018-12-14T03:08:28.488Z,29.80
2018-12-14T03:09:28.460Z,30.20
2018-12-14T03:10:28.433Z,31.50
2018-12-14T03:11:28.408Z,30.70
2018-12-14T03:12:28.382Z,30.10
2018-12-14T03:13:28.357Z,30.70
2018-12-14T03:14:28.327Z,31.00
2018-12-14T03:15:28.302Z,29.50
2018-12-14T03:16:28.276Z,31.10
2018-12-14T03:17:28.250Z,30.20
2018-12-14T03:18:28.221Z,30.80
2018-12-14T03:19:28.195Z,30.40
2018-12-14T03:20:28.172Z,31.00
2018-12-14T03:21:28.146Z,30.70
2018-12-14T03:22:28.117Z,30.80
2018-12-14T03:23:28.091Z,30.70
2018-12-14T03:24:28.068Z,30.00
2018-12-14T03:25:28.036Z,31.60
2018-12-14T03:26:28.009Z,31.10
2018-12-14T03:27:27.986Z,29.80
2018-12-14T03:28:27.959Z,29.60
2018-12-14T03:29:27.931Z,29.40
2018-12-14T03:30:27.906Z,30.00
2018-12-14T03:31:27.880Z,30.50
2018-12-14T03:32:27.869Z,30.50
2018-12-14T03:33:27.823Z,30.80
2018-12-14T03:34:27.797Z,30.00
2018-12-14T03:35:27.771Z,30.70
2018-12-14T03:36:27.755Z,31.30
2018-12-14T03:37:27.718Z,31.20
2018-12-14T03:38:27.690Z,30.30
2018-12-14T03:39:27.664Z,30.60
2018-12-14T03:40:27.667Z,30.10
2018-12-14T03:41:27.611Z,31.30
2018-12-14T03:42:33.933Z,31.50
2018-12-14T03:43:27.563Z,29.80
2018-12-14T03:44:27.535Z,29.60
2018-12-14T03:45:27.508Z,32.30
2018-12-14T03:46:27.479Z,30.90
2018-12-14T03:47:27.463Z,30.40
2018-12-14T03:48:27.426Z,30.60
2018-12-14T03:49:27.397Z,30.90
2018-12-14T03:50:27.373Z,30.10
2018-12-14T03:51:27.351Z,31.00
2018-12-14T03:52:27.322Z,31.20
2018-12-14T03:53:27.292Z,31.20
2018-12-14T03:54:27.270Z,31.40
2018-12-14T03:55:27.244Z,30.90
2018-12-14T03:56:27.224Z,29.30
2018-12-14T03:57:27.189Z,30.30
2018-12-14T03:58:27.164Z,29.80
2018-12-14T03:59:27.138Z,30.50
2018-12-14T04:00:27.111Z,30.50
2018-12-14T04:01:27.080Z,29.70
2018-12-14T04:02:27.054Z,30.70
2018-12-14T04:03:27.031Z,28.40
2018-12-14T04:04:27.002Z,29.40
2018-12-14T04:05:26.974Z,29.30
2018-12-14T04:06:26.960Z,29.60
2018-12-14T04:07:26.923Z,29.50
2018-12-14T04:08:26.895Z,29.60
2018-12-14T04:09:26.865Z,29.60
2018-12-14T04:10:26.859Z,29.50
2018-12-14T04:11:26.818Z,32.10
2018-12-14T04:12:26.794Z,30.80
2018-12-14T04:13:26.761Z,30.00
2018-12-14T04:14:26.736Z,31.50
2018-12-14T04:15:26.710Z,29.30
2018-12-14T04:16:26.686Z,30.40
2018-12-14T04:17:26.655Z,29.00
2018-12-14T04:18:26.629Z,29.80
2018-12-14T04:19:26.602Z,28.20
2018-12-14T04:20:26.575Z,30.60
2018-12-14T04:21:26.557Z,30.40
2018-12-14T04:22:26.529Z,30.80
2018-12-14T04:23:26.493Z,31.00
2018-12-14T04:24:26.483Z,29.00
2018-12-14T04:25:26.444Z,30.40
2018-12-14T04:26:26.413Z,30.70
2018-12-14T04:27:26.388Z,29.70
2018-12-14T04:28:26.362Z,29.40
2018-12-14T04:29:26.337Z,30.90
2018-12-14T04:30:26.310Z,30.70
2018-12-14T04:31:26.282Z,30.20
2018-12-14T04:32:26.255Z,29.50
2018-12-14T04:33:26.227Z,28.00
2018-12-14T04:34:26.215Z,28.80
2018-12-14T04:35:26.222Z,30.20
2018-12-14T04:36:26.152Z,29.60
2018-12-14T04:37:26.121Z,29.90
2018-12-14T04:38:26.097Z,30.20
2018-12-14T04:39:26.070Z,29.10
2018-12-14T04:40:26.055Z,30.00
2018-12-14T04:41:26.015Z,30.90
2018-12-14T04:42:26.006Z,29.40
2018-12-14T04:43:25.962Z,28.50
2018-12-14T04:44:25.937Z,29.30
2018-12-14T04:45:25.908Z,30.30
2018-12-14T04:46:25.881Z,29.70
2018-12-14T04:47:25.856Z,28.50
2018-12-14T04:48:25.829Z,30.10
2018-12-14T04:49:25.802Z,29.70
2018-12-14T04:50:25.774Z,29.40
2018-12-14T04:51:25.750Z,29.90
2018-12-14T04:52:25.724Z,29.40
2018-12-14T04:53:25.695Z,29.60
2018-12-14T04:54:25.755Z,29.10
2018-12-14T04:55:25.642Z,29.30
2018-12-14T04:56:25.620Z,28.50
2018-12-14T04:57:25.591Z,30.90
2018-12-14T04:58:25.568Z,30.30
2018-12-14T04:59:25.537Z,29.60
2018-12-14T05:00:25.525Z,30.00
2018-12-14T05:01:25.482Z,29.50
2018-12-14T05:02:25.460Z,28.50
2018-12-14T05:03:25.433Z,29.60
2018-12-14T05:04:25.423Z,30.00
2018-12-14T05:05:25.377Z,29.50
2018-12-14T05:06:25.354Z,28.90
2018-12-14T05:07:25.327Z,29.70
2018-12-14T05:08:25.300Z,29.50
2018-12-14T05:09:25.274Z,30.20
2018-12-14T05:10:25.245Z,28.60
2018-12-14T05:11:25.219Z,30.70
2018-12-14T05:12:25.191Z,30.00
2018-12-14T05:13:25.164Z,29.80
2018-12-14T05:14:25.139Z,29.30
2018-12-14T05:15:25.113Z,30.20
2018-12-14T05:16:25.085Z,29.40
2018-12-14T05:17:25.059Z,30.10
2018-12-14T05:18:25.032Z,29.00
2018-12-14T05:19:25.007Z,29.20
2018-12-14T05:20:24.983Z,31.10
2018-12-14T05:21:24.953Z,29.40
2018-12-14T05:22:24.925Z,31.50
2018-12-14T05:23:24.899Z,28.80
2018-12-14T05:24:24.879Z,28.80
2018-12-14T05:25:24.853Z,28.40
2018-12-14T05:26:24.819Z,29.60
2018-12-14T05:27:24.798Z,30.70
2018-12-14T05:28:24.768Z,29.20
2018-12-14T05:29:24.749Z,31.00
2018-12-14T05:30:24.726Z,30.50
2018-12-14T05:31:24.685Z,30.70
2018-12-14T05:32:24.662Z,30.10
2018-12-14T05:33:24.633Z,29.30
2018-12-14T05:34:24.612Z,29.60
2018-12-14T05:35:24.581Z,28.80
2018-12-14T05:36:24.563Z,29.60
2018-12-14T05:37:24.528Z,30.20
2018-12-14T05:38:24.501Z,29.60
2018-12-14T05:39:24.475Z,29.70
2018-12-14T05:40:24.449Z,30.00
2018-12-14T05:41:24.767Z,29.60
2018-12-14T05:42:24.442Z,30.90
2018-12-14T05:43:24.700Z,29.90
2018-12-14T05:44:24.663Z,28.30
2018-12-14T05:45:24.518Z,30.10
2018-12-14T05:46:24.617Z,30.20
2018-12-14T05:47:24.273Z,30.90
2018-12-14T05:48:24.234Z,30.00
2018-12-14T05:49:24.212Z,29.90
2018-12-14T05:50:24.194Z,29.00
2018-12-14T05:51:25.088Z,29.40
2018-12-14T05:52:24.132Z,29.60
2018-12-14T05:53:24.102Z,30.00
2018-12-14T05:54:24.816Z,30.10
2018-12-14T05:55:24.058Z,30.40
2018-12-14T05:56:24.022Z,30.30
2018-12-14T05:57:23.994Z,31.20
2018-12-14T05:58:23.975Z,29.50
2018-12-14T05:59:23.946Z,29.20
2018-12-14T06:00:23.920Z,30.10
2018-12-14T06:01:24.206Z,29.60
2018-12-14T06:02:24.194Z,29.10
2018-12-14T06:03:24.040Z,29.90
2018-12-14T06:04:24.148Z,28.50
2018-12-14T06:06:24.291Z,29.00
2018-12-14T06:07:24.048Z,31.40
2018-12-14T06:08:24.005Z,31.20
2018-12-14T06:09:23.978Z,30.30
2018-12-14T06:10:23.652Z,30.60
2018-12-14T06:11:24.164Z,31.60
2018-12-14T06:12:24.117Z,30.00
2018-12-14T06:13:23.575Z,30.20
2018-12-14T06:14:24.072Z,30.40
2018-12-14T06:15:24.039Z,31.30
2018-12-14T06:16:23.490Z,30.60
2018-12-14T06:17:24.387Z,29.90
2018-12-14T06:18:23.460Z,29.80
2018-12-14T06:19:23.434Z,29.90
2018-12-14T06:20:23.583Z,31.10
2018-12-14T06:21:23.674Z,29.10
2018-12-14T06:22:23.331Z,29.90
2018-12-14T06:23:23.303Z,29.60
2018-12-14T06:24:23.335Z,30.70
2018-12-14T06:25:23.248Z,29.80
2018-12-14T06:27:23.514Z,29.70
2018-12-14T06:28:23.487Z,29.90
2018-12-14T06:29:23.177Z,29.90
2018-12-14T06:30:23.436Z,30.00
2018-12-14T06:31:23.123Z,29.70
2018-12-14T06:32:23.390Z,29.90
2018-12-14T06:33:23.050Z,30.90
2018-12-14T06:34:23.009Z,31.10
2018-12-14T06:35:23.514Z,30.90
2018-12-14T06:36:22.957Z,31.90
2018-12-14T06:37:22.964Z,30.40
2018-12-14T06:38:22.910Z,30.70
2018-12-14T06:39:23.177Z,30.50
2018-12-14T06:40:22.854Z,32.40
2018-12-14T06:41:22.836Z,31.10
2018-12-14T06:42:23.122Z,32.90
2018-12-14T06:43:22.768Z,33.80
2018-12-14T06:44:22.743Z,33.20
2018-12-14T06:45:22.755Z,34.20
2018-12-14T06:46:22.689Z,32.10
2018-12-14T06:47:22.670Z,33.10
2018-12-14T06:48:22.641Z,33.70
2018-12-14T06:49:22.610Z,32.60
2018-12-14T06:50:22.585Z,33.20
2018-12-14T06:51:22.558Z,32.60
2018-12-14T06:52:22.531Z,31.60
2018-12-14T06:53:22.504Z,33.60
2018-12-14T06:54:22.477Z,32.20
2018-12-14T06:55:22.451Z,32.50
2018-12-14T06:56:22.424Z,32.70
2018-12-14T06:57:22.405Z,34.70
2018-12-14T06:58:22.372Z,34.40
2018-12-14T06:59:22.352Z,34.00
2018-12-14T07:00:22.320Z,32.50
2018-12-14T07:01:22.286Z,32.10
2018-12-14T07:02:22.262Z,31.00
2018-12-14T07:03:22.242Z,31.40
2018-12-14T07:04:22.211Z,31.40
2018-12-14T07:05:22.182Z,32.20
2018-12-14T07:06:22.156Z,31.40
2018-12-14T07:07:22.128Z,32.40
2018-12-14T07:08:22.103Z,30.80
2018-12-14T07:09:22.078Z,31.70
2018-12-14T07:10:22.049Z,31.60
2018-12-14T07:11:22.024Z,32.20
2018-12-14T07:12:21.996Z,31.80
2018-12-14T07:13:22.137Z,32.20
2018-12-14T07:14:21.946Z,33.10
2018-12-14T07:15:21.917Z,32.70
2018-12-14T07:16:21.896Z,32.80
2018-12-14T07:17:21.861Z,31.60
2018-12-14T07:18:21.835Z,32.40
2018-12-14T07:19:21.807Z,32.80
2018-12-14T07:20:21.787Z,32.30
2018-12-14T07:21:21.755Z,33.60
2018-12-14T07:22:21.766Z,32.30
2018-12-14T07:23:21.707Z,32.70
2018-12-14T07:24:21.677Z,32.60
2018-12-14T07:25:21.651Z,33.60
2018-12-14T07:26:21.622Z,33.80
2018-12-14T07:27:21.594Z,32.60
2018-12-14T07:28:21.570Z,34.70
2018-12-14T07:29:21.540Z,32.20
2018-12-14T07:30:21.514Z,31.80
2018-12-14T07:31:21.487Z,32.80
2018-12-14T07:32:21.462Z,33.60
2018-12-14T07:33:21.443Z,31.90
2018-12-14T07:34:21.409Z,31.60
2018-12-14T07:35:21.380Z,32.60
2018-12-14T07:36:21.355Z,33.50
2018-12-14T07:37:21.327Z,32.20
2018-12-14T07:38:21.300Z,31.80
2018-12-14T07:39:21.272Z,32.80
2018-12-14T07:40:21.249Z,33.00
2018-12-14T07:41:21.227Z,31.20
2018-12-14T07:42:21.192Z,31.90
2018-12-14T07:43:21.166Z,32.60
2018-12-14T07:44:21.190Z,32.90
2018-12-14T07:45:21.111Z,32.50
2018-12-14T07:46:21.085Z,31.00
2018-12-14T07:47:21.067Z,31.30
2018-12-14T07:48:21.031Z,32.30
2018-12-14T07:49:21.004Z,32.70
2018-12-14T07:50:20.977Z,32.40
2018-12-14T07:51:20.950Z,32.20
2018-12-14T07:52:20.926Z,32.00
2018-12-14T07:53:20.895Z,31.90
2018-12-14T07:54:20.871Z,32.40
2018-12-14T07:55:20.846Z,31.90
2018-12-14T07:56:20.817Z,31.60
2018-12-14T07:57:20.793Z,31.90
2018-12-14T07:58:20.763Z,33.10
2018-12-14T07:59:20.737Z,32.50
2018-12-14T08:00:20.711Z,34.40
2018-12-14T08:01:20.683Z,33.60
2018-12-14T08:02:20.658Z,33.30
2018-12-14T08:03:20.629Z,32.90
2018-12-14T08:04:20.602Z,33.40
2018-12-14T08:05:20.576Z,32.50
2018-12-14T08:06:20.548Z,34.00
2018-12-14T08:07:20.522Z,33.20
2018-12-14T08:08:20.495Z,34.10
2018-12-14T08:09:20.467Z,33.40
2018-12-14T08:10:20.445Z,32.70
2018-12-14T08:11:20.414Z,33.30
2018-12-14T08:12:20.390Z,34.50
2018-12-14T08:13:20.362Z,34.20
2018-12-14T08:14:20.336Z,33.70
2018-12-14T08:15:20.309Z,33.40
2018-12-14T08:16:20.282Z,33.20
2018-12-14T08:17:20.255Z,31.40
2018-12-14T08:18:20.227Z,34.60
2018-12-14T08:19:20.203Z,34.10
2018-12-14T08:20:20.178Z,33.00
2018-12-14T08:21:20.148Z,33.70
2018-12-14T08:22:20.130Z,33.70
2018-12-14T08:23:20.096Z,33.30
2018-12-14T08:24:20.068Z,33.60
2018-12-14T08:25:20.046Z,34.60
2018-12-14T08:26:20.023Z,33.60
2018-12-14T08:27:19.997Z,33.60
2018-12-14T08:28:19.961Z,32.40
2018-12-14T08:29:19.947Z,33.70
2018-12-14T08:30:19.910Z,31.70
2018-12-14T08:31:19.880Z,32.80
2018-12-14T08:32:19.854Z,33.70
2018-12-14T08:33:19.832Z,32.70
2018-12-14T08:34:19.803Z,32.80
2018-12-14T08:35:19.778Z,34.40
2018-12-14T08:36:19.749Z,32.90
2018-12-14T08:37:19.724Z,33.00
2018-12-14T08:38:19.694Z,31.00
2018-12-14T08:39:19.668Z,33.50
2018-12-14T08:40:19.644Z,32.80
2018-12-14T08:41:19.612Z,33.50
2018-12-14T08:42:19.587Z,33.70
2018-12-14T08:43:19.567Z,32.80
2018-12-14T08:44:19.535Z,33.30
2018-12-14T08:45:19.505Z,35.30
2018-12-14T08:46:19.492Z,34.20
2018-12-14T08:47:19.452Z,34.00
2018-12-14T08:48:19.424Z,33.50
2018-12-14T08:49:19.405Z,34.30
2018-12-14T08:50:19.370Z,32.50
2018-12-14T08:51:19.344Z,32.80
2018-12-14T08:52:19.318Z,33.20
2018-12-14T08:53:19.296Z,32.00
2018-12-14T08:54:19.277Z,31.60
2018-12-14T08:55:19.242Z,31.90
2018-12-14T08:56:19.211Z,32.40
2018-12-14T08:57:19.185Z,32.30
2018-12-14T08:58:19.159Z,33.30
2018-12-14T08:59:19.141Z,35.30
2018-12-14T09:00:19.104Z,32.70
2018-12-14T09:01:19.077Z,32.10
2018-12-14T09:02:19.056Z,33.90
2018-12-14T09:03:19.024Z,33.70
2018-12-14T09:04:18.997Z,33.70
2018-12-14T09:05:18.970Z,33.30
2018-12-14T09:06:18.946Z,34.00
2018-12-14T09:07:24.395Z,33.90
2018-12-14T09:08:18.891Z,32.30
2018-12-14T09:09:18.868Z,33.00
2018-12-14T09:10:18.836Z,33.90
2018-12-14T09:11:18.822Z,32.50
2018-12-14T09:12:18.795Z,31.40
2018-12-14T09:13:18.763Z,32.70
2018-12-14T09:14:18.731Z,32.80
2018-12-14T09:15:18.707Z,31.60
2018-12-14T09:16:18.681Z,32.10
2018-12-14T09:17:18.660Z,32.50
2018-12-14T09:18:18.638Z,31.50
2018-12-14T09:19:18.598Z,32.70
2018-12-14T09:20:18.569Z,31.90
2018-12-14T09:21:18.541Z,31.80
2018-12-14T09:22:18.514Z,30.60
2018-12-14T09:23:18.495Z,30.50
2018-12-14T09:24:18.466Z,31.50
2018-12-14T09:25:18.442Z,30.50
2018-12-14T09:26:18.407Z,31.70
2018-12-14T09:27:18.388Z,32.10
2018-12-14T09:28:18.356Z,30.90
2018-12-14T09:29:18.328Z,30.70
2018-12-14T09:30:18.313Z,30.80
2018-12-14T09:31:18.280Z,31.30
2018-12-14T09:32:18.248Z,31.30
2018-12-14T09:33:18.220Z,29.80
2018-12-14T09:34:18.195Z,30.50
2018-12-14T09:35:18.180Z,31.00
2018-12-14T09:36:18.144Z,30.50
2018-12-14T09:37:18.121Z,30.80
2018-12-14T09:38:18.097Z,29.00
2018-12-14T09:39:18.060Z,30.80
2018-12-14T09:40:18.036Z,30.50
2018-12-14T09:41:18.004Z,30.70
2018-12-14T09:42:17.980Z,30.00
2018-12-14T09:43:17.955Z,28.70
2018-12-14T09:44:17.927Z,29.30
2018-12-14T09:45:17.901Z,28.00
2018-12-14T09:46:17.879Z,30.30
2018-12-14T09:47:17.854Z,28.80
2018-12-14T09:48:17.819Z,27.50
2018-12-14T09:49:17.798Z,29.50
2018-12-14T09:50:17.773Z,27.70
2018-12-14T09:51:17.746Z,29.10
2018-12-14T09:52:17.724Z,29.00
2018-12-14T09:53:17.690Z,27.20
2018-12-14T09:54:17.668Z,28.40
2018-12-14T09:55:17.637Z,27.70
2018-12-14T09:56:17.610Z,28.00
2018-12-14T09:57:17.584Z,26.50
2018-12-14T09:58:17.560Z,28.80
2018-12-14T09:59:17.532Z,27.00
2018-12-14T10:00:17.502Z,28.10
2018-12-14T10:01:17.473Z,27.10
2018-12-14T10:02:17.446Z,27.40
2018-12-14T10:03:17.422Z,27.20
2018-12-14T10:04:17.405Z,27.20
2018-12-14T10:05:17.374Z,27.10
2018-12-14T10:06:17.341Z,26.90
2018-12-14T10:07:17.317Z,25.20
2018-12-14T10:08:17.294Z,25.40
2018-12-14T10:09:17.265Z,25.70
2018-12-14T10:10:17.236Z,26.20
2018-12-14T10:11:17.213Z,27.20
2018-12-14T10:12:17.194Z,27.30
2018-12-14T10:13:17.153Z,26.40
2018-12-14T10:14:17.129Z,25.30
2018-12-14T10:15:17.100Z,27.10
2018-12-14T10:16:17.075Z,26.00
2018-12-14T10:17:17.055Z,26.60
2018-12-14T10:18:17.031Z,27.20
2018-12-14T10:19:16.997Z,26.90
2018-12-14T10:20:16.968Z,27.40
2018-12-14T10:21:16.947Z,25.00
2018-12-14T10:22:16.914Z,26.80
2018-12-14T10:23:16.892Z,26.30
2018-12-14T10:24:16.863Z,25.10
2018-12-14T10:25:16.835Z,24.10
2018-12-14T10:26:16.805Z,25.40
2018-12-14T10:27:16.784Z,24.90
2018-12-14T10:28:16.761Z,24.00
2018-12-14T10:29:16.729Z,24.80
2018-12-14T10:30:16.728Z,24.80
2018-12-14T10:31:16.696Z,24.20
2018-12-14T10:32:16.653Z,23.20
2018-12-14T10:33:16.623Z,24.40
2018-12-14T10:34:16.599Z,24.10
2018-12-14T10:35:16.568Z,25.20
2018-12-14T10:36:16.542Z,24.20
2018-12-14T10:37:16.522Z,23.70
2018-12-14T10:38:16.489Z,24.90
2018-12-14T10:39:16.466Z,23.00
2018-12-14T10:40:16.436Z,25.10
2018-12-14T10:41:16.414Z,23.70
2018-12-14T10:42:16.382Z,23.70
2018-12-14T10:43:16.361Z,22.70
2018-12-14T10:44:16.341Z,23.30
2018-12-14T10:45:16.306Z,23.30
2018-12-14T10:46:16.279Z,21.90
2018-12-14T10:47:16.254Z,22.80
2018-12-14T10:48:16.230Z,21.90
2018-12-14T10:49:16.208Z,22.70
2018-12-14T10:50:16.172Z,23.20
2018-12-14T10:51:16.145Z,23.30
2018-12-14T10:52:16.119Z,23.20
2018-12-14T10:53:16.094Z,21.40
2018-12-14T10:54:16.068Z,23.20
2018-12-14T10:55:16.039Z,24.10
2018-12-14T10:56:16.017Z,25.40
2018-12-14T10:57:16.309Z,27.10
2018-12-14T10:58:15.963Z,26.50
2018-12-14T10:59:15.934Z,23.50
2018-12-14T11:00:15.915Z,23.00
2018-12-14T11:01:15.881Z,23.30
2018-12-14T11:02:15.853Z,22.10
2018-12-14T11:03:15.827Z,22.60
2018-12-14T11:04:15.809Z,23.20
2018-12-14T11:05:15.774Z,22.90
2018-12-14T11:06:15.749Z,21.80
2018-12-14T11:07:15.721Z,22.80
2018-12-14T11:08:15.697Z,22.20
2018-12-14T11:09:15.666Z,21.50
2018-12-14T11:10:15.651Z,23.00
2018-12-14T11:11:15.616Z,23.80
2018-12-14T11:12:15.597Z,23.10
2018-12-14T11:13:15.562Z,21.80
2018-12-14T11:14:15.541Z,23.30
2018-12-14T11:15:15.511Z,21.70
2018-12-14T11:16:15.486Z,20.50
2018-12-14T11:17:15.457Z,20.70
2018-12-14T11:18:15.433Z,21.10
2018-12-14T11:19:15.408Z,20.80
2018-12-14T11:20:15.380Z,21.20
2018-12-14T11:21:15.356Z,20.90
2018-12-14T11:22:15.327Z,21.00
2018-12-14T11:23:15.321Z,21.00
2018-12-14T11:24:15.276Z,19.90
2018-12-14T11:25:15.246Z,21.90
2018-12-14T11:26:15.222Z,20.80
2018-12-14T11:27:15.201Z,20.10
2018-12-14T11:28:15.174Z,21.50
2018-12-14T11:29:15.146Z,21.30
2018-12-14T11:30:15.115Z,20.90
2018-12-14T11:31:15.088Z,20.80
2018-12-14T11:32:15.061Z,20.80
2018-12-14T11:33:15.035Z,21.00
2018-12-14T11:34:15.018Z,21.60
2018-12-14T11:35:14.983Z,21.60
2018-12-14T11:36:14.956Z,20.90
2018-12-14T11:37:14.930Z,20.90
2018-12-14T11:38:14.910Z,21.70
2018-12-14T11:39:14.879Z,21.10
2018-12-14T11:40:14.864Z,21.60
2018-12-14T11:41:18.483Z,19.70
2018-12-14T11:42:14.801Z,19.80
2018-12-14T11:43:14.779Z,21.20
2018-12-14T11:44:20.306Z,20.20
2018-12-14T11:45:14.720Z,20.80
2018-12-14T11:46:14.692Z,21.30
2018-12-14T11:47:18.160Z,22.50
2018-12-14T11:48:14.640Z,21.10
2018-12-14T11:49:14.616Z,21.30
2018-12-14T11:50:14.589Z,20.70
2018-12-14T11:51:14.566Z,21.30
2018-12-14T11:52:14.535Z,21.20
2018-12-14T11:53:14.508Z,21.40
2018-12-14T11:54:14.480Z,20.50
2018-12-14T11:55:14.463Z,20.40
2018-12-14T11:56:14.428Z,22.70
2018-12-14T11:57:14.402Z,22.20
2018-12-14T11:58:14.380Z,22.10
2018-12-14T11:59:14.358Z,22.10
2018-12-14T12:00:14.322Z,22.00
2018-12-14T12:01:14.305Z,22.00
2018-12-14T12:02:14.270Z,21.90
2018-12-14T12:03:14.244Z,21.50
2018-12-14T12:04:14.219Z,21.90
2018-12-14T12:05:14.191Z,21.40
2018-12-14T12:06:14.186Z,22.10
2018-12-14T12:07:14.138Z,20.20
2018-12-14T12:08:14.125Z,22.50
2018-12-14T12:09:14.084Z,20.60
2018-12-14T12:10:14.062Z,20.80
2018-12-14T12:11:14.036Z,22.30
2018-12-14T12:12:14.006Z,22.00
2018-12-14T12:13:13.978Z,21.50
2018-12-14T12:14:13.966Z,21.70
2018-12-14T12:15:13.927Z,22.00
2018-12-14T12:16:13.957Z,20.60
2018-12-14T12:17:13.877Z,20.90
2018-12-14T12:18:13.848Z,20.40
2018-12-14T12:19:13.822Z,22.00
2018-12-14T12:20:13.799Z,20.30
2018-12-14T12:21:13.770Z,21.10
2018-12-14T12:22:13.742Z,22.40
2018-12-14T12:23:13.714Z,22.30
2018-12-14T12:24:13.692Z,22.40
2018-12-14T12:25:13.670Z,22.00
2018-12-14T12:26:13.634Z,21.90
2018-12-14T12:27:13.611Z,22.50
2018-12-14T12:28:13.583Z,21.10
2018-12-14T12:29:13.559Z,21.70
2018-12-14T12:30:13.534Z,21.70
2018-12-14T12:31:13.507Z,22.50
2018-12-14T12:32:13.479Z,20.60
2018-12-14T12:33:13.450Z,21.00
2018-12-14T12:34:13.428Z,21.70
2018-12-14T12:35:13.400Z,20.30
2018-12-14T12:36:13.372Z,20.20
2018-12-14T12:37:13.352Z,21.00
2018-12-14T12:38:13.321Z,20.90
2018-12-14T12:39:13.293Z,22.10
2018-12-14T12:40:13.267Z,22.00
2018-12-14T12:41:13.249Z,20.60
2018-12-14T12:42:13.218Z,21.30
2018-12-14T12:43:13.187Z,21.10
2018-12-14T12:44:13.162Z,20.50
2018-12-14T12:45:13.146Z,20.20
2018-12-14T12:46:13.110Z,20.00
2018-12-14T12:47:13.092Z,20.70
2018-12-14T12:48:13.059Z,21.80
2018-12-14T12:49:13.036Z,20.90
2018-12-14T12:50:13.005Z,20.30
2018-12-14T12:51:12.985Z,22.40
2018-12-14T12:52:12.956Z,21.30
2018-12-14T12:53:12.934Z,20.20
2018-12-14T12:54:12.903Z,21.60